CFC3282 PAFA-PABR
Flight info
| Callsign | CFC3282 |
|---|---|
| Flight time | 1h 11m |
| Altitude | 40000 |
| Route | FAI Q61 BRW |
| Aircraft | CL60/M-SADE3FGHIJ3J4J7P2RWXY/HB1D1 |
Departure
| Time | 2026-04-22 07:58 |
|---|---|
| Airport | Fairbanks International Airport (PAFA) |
Arrival
| Time | 2026-04-22 09:09 |
|---|---|
| Airport | Wiley Post Will Rogers Memorial Airport (PABR) |
| Time | Latitude | Longitude | Altitude | Speed | Heading |
|---|---|---|---|---|---|
| 2026-04-22 07:14 | 64.81550 | -147.87077 | 433 ft | 0 kts | 104° |
| 2026-04-22 07:43 | 64.81550 | -147.87076 | 432 ft | 0 kts | 104° |
| 2026-04-22 07:52 | 64.81548 | -147.87064 | 432 ft | 4 kts | 118° |
| 2026-04-22 07:52 | 64.81535 | -147.87022 | 432 ft | 1 kts | 129° |
| 2026-04-22 07:52 | 64.81526 | -147.86997 | 432 ft | 3 kts | 129° |
| 2026-04-22 07:53 | 64.81488 | -147.86890 | 432 ft | 10 kts | 130° |
| 2026-04-22 07:53 | 64.81450 | -147.86786 | 432 ft | 0 kts | 130° |
| 2026-04-22 07:53 | 64.81443 | -147.86751 | 432 ft | 9 kts | 78° |
| 2026-04-22 07:53 | 64.81623 | -147.86403 | 434 ft | 42 kts | 38° |
| 2026-04-22 07:54 | 64.81802 | -147.86085 | 434 ft | 19 kts | 37° |
| 2026-04-22 07:54 | 64.81919 | -147.85872 | 434 ft | 22 kts | 38° |
| 2026-04-22 07:54 | 64.82051 | -147.85632 | 434 ft | 24 kts | 37° |
| 2026-04-22 07:54 | 64.82175 | -147.85405 | 434 ft | 25 kts | 39° |
| 2026-04-22 07:55 | 64.82252 | -147.85263 | 433 ft | 7 kts | 38° |
| 2026-04-22 07:55 | 64.82307 | -147.85159 | 433 ft | 12 kts | 38° |
| 2026-04-22 07:55 | 64.82384 | -147.85019 | 433 ft | 15 kts | 38° |
| 2026-04-22 07:55 | 64.82481 | -147.84837 | 432 ft | 19 kts | 40° |
| 2026-04-22 07:56 | 64.82595 | -147.84633 | 432 ft | 22 kts | 38° |
| 2026-04-22 07:56 | 64.82725 | -147.84396 | 432 ft | 24 kts | 39° |
| 2026-04-22 07:56 | 64.82833 | -147.84190 | 432 ft | 8 kts | 51° |
| 2026-04-22 07:56 | 64.82841 | -147.84158 | 432 ft | 1 kts | 69° |
| 2026-04-22 07:57 | 64.82844 | -147.84135 | 432 ft | 3 kts | 72° |
| 2026-04-22 07:57 | 64.82835 | -147.84049 | 431 ft | 8 kts | 130° |
| 2026-04-22 07:57 | 64.82772 | -147.83972 | 430 ft | 12 kts | 196° |
| 2026-04-22 07:57 | 64.82684 | -147.84129 | 429 ft | 31 kts | 217° |
| 2026-04-22 07:58 | 64.82171 | -147.85069 | 442 ft | 145 kts | 218° |
| 2026-04-22 07:58 | 64.81341 | -147.86604 | 1425 ft | 161 kts | 223° |
| 2026-04-22 07:58 | 64.80801 | -147.88672 | 2795 ft | 153 kts | 254° |
| 2026-04-22 07:58 | 64.80884 | -147.90968 | 4070 ft | 157 kts | 295° |
| 2026-04-22 07:59 | 64.81802 | -147.92580 | 5127 ft | 180 kts | 333° |
| 2026-04-22 07:59 | 64.83019 | -147.93541 | 6160 ft | 197 kts | 337° |
| 2026-04-22 07:59 | 64.84446 | -147.94281 | 7210 ft | 222 kts | 345° |
| 2026-04-22 07:59 | 64.85992 | -147.94205 | 8596 ft | 230 kts | 356° |
| 2026-04-22 08:00 | 64.87583 | -147.93738 | 10024 ft | 231 kts | 1° |
| 2026-04-22 08:00 | 64.89067 | -147.93408 | 11536 ft | 218 kts | 348° |
| 2026-04-22 08:00 | 64.90603 | -147.93622 | 12596 ft | 231 kts | 346° |
| 2026-04-22 08:00 | 64.92214 | -147.93887 | 13947 ft | 233 kts | 345° |
| 2026-04-22 08:01 | 64.93807 | -147.94139 | 15219 ft | 235 kts | 345° |
| 2026-04-22 08:01 | 64.95551 | -147.94499 | 15788 ft | 263 kts | 339° |
| 2026-04-22 08:01 | 64.97353 | -147.95816 | 16407 ft | 279 kts | 330° |
| 2026-04-22 08:01 | 64.99286 | -147.97589 | 16803 ft | 310 kts | 330° |
| 2026-04-22 08:02 | 65.01382 | -147.99448 | 17502 ft | 328 kts | 332° |
| 2026-04-22 08:02 | 65.03587 | -148.01343 | 18561 ft | 334 kts | 332° |
| 2026-04-22 08:02 | 65.05777 | -148.03218 | 19663 ft | 336 kts | 332° |
| 2026-04-22 08:02 | 65.07981 | -148.05109 | 20710 ft | 336 kts | 331° |
| 2026-04-22 08:03 | 65.10223 | -148.07033 | 21664 ft | 339 kts | 330° |
| 2026-04-22 08:03 | 65.12470 | -148.08966 | 22588 ft | 341 kts | 330° |
| 2026-04-22 08:03 | 65.14700 | -148.10886 | 23470 ft | 342 kts | 330° |
| 2026-04-22 08:03 | 65.16945 | -148.12820 | 24299 ft | 343 kts | 329° |
| 2026-04-22 08:04 | 65.19228 | -148.14772 | 25089 ft | 345 kts | 330° |
| 2026-04-22 08:04 | 65.21515 | -148.16653 | 25764 ft | 349 kts | 330° |
| 2026-04-22 08:04 | 65.23854 | -148.18574 | 26365 ft | 355 kts | 330° |
| 2026-04-22 08:04 | 65.26199 | -148.20506 | 26948 ft | 361 kts | 330° |
| 2026-04-22 08:05 | 65.28607 | -148.22490 | 27576 ft | 364 kts | 331° |
| 2026-04-22 08:05 | 65.31018 | -148.24475 | 28165 ft | 367 kts | 331° |
| 2026-04-22 08:05 | 65.33470 | -148.26502 | 28699 ft | 371 kts | 331° |
| 2026-04-22 08:05 | 65.35914 | -148.28528 | 29128 ft | 375 kts | 330° |
| 2026-04-22 08:06 | 65.38357 | -148.30884 | 29557 ft | 373 kts | 327° |
| 2026-04-22 08:06 | 65.40746 | -148.33456 | 29924 ft | 377 kts | 327° |
| 2026-04-22 08:06 | 65.43198 | -148.36104 | 30297 ft | 381 kts | 327° |
| 2026-04-22 08:06 | 65.45641 | -148.38745 | 30674 ft | 384 kts | 327° |
| 2026-04-22 08:07 | 65.48127 | -148.41437 | 30942 ft | 388 kts | 328° |
| 2026-04-22 08:07 | 65.50658 | -148.44185 | 31155 ft | 393 kts | 328° |
| 2026-04-22 08:07 | 65.53190 | -148.46941 | 31321 ft | 399 kts | 328° |
| 2026-04-22 08:07 | 65.55781 | -148.49762 | 31568 ft | 402 kts | 328° |
| 2026-04-22 08:08 | 65.58362 | -148.52580 | 31721 ft | 407 kts | 328° |
| 2026-04-22 08:08 | 65.60956 | -148.55417 | 31906 ft | 410 kts | 329° |
| 2026-04-22 08:08 | 65.63618 | -148.58333 | 32114 ft | 413 kts | 329° |
| 2026-04-22 08:08 | 65.66285 | -148.61263 | 32317 ft | 417 kts | 329° |
| 2026-04-22 08:09 | 65.68949 | -148.64194 | 32501 ft | 420 kts | 329° |
| 2026-04-22 08:09 | 65.71645 | -148.67166 | 32793 ft | 420 kts | 329° |
| 2026-04-22 08:09 | 65.74310 | -148.70108 | 33126 ft | 418 kts | 329° |
| 2026-04-22 08:09 | 65.76969 | -148.73053 | 33411 ft | 419 kts | 329° |
| 2026-04-22 08:10 | 65.79668 | -148.76050 | 33661 ft | 421 kts | 330° |
| 2026-04-22 08:10 | 65.82399 | -148.79092 | 33852 ft | 425 kts | 330° |
| 2026-04-22 08:10 | 65.85087 | -148.82092 | 34100 ft | 427 kts | 330° |
| 2026-04-22 08:10 | 65.87833 | -148.85162 | 34420 ft | 426 kts | 330° |
| 2026-04-22 08:11 | 65.90566 | -148.88225 | 34688 ft | 427 kts | 330° |
| 2026-04-22 08:11 | 65.93246 | -148.91235 | 34932 ft | 428 kts | 330° |
| 2026-04-22 08:11 | 65.95994 | -148.94331 | 35174 ft | 429 kts | 330° |
| 2026-04-22 08:11 | 65.98726 | -148.97415 | 35429 ft | 430 kts | 330° |
| 2026-04-22 08:12 | 66.01459 | -149.00508 | 35672 ft | 430 kts | 331° |
| 2026-04-22 08:12 | 66.04203 | -149.03621 | 35883 ft | 431 kts | 331° |
| 2026-04-22 08:12 | 66.06917 | -149.06705 | 36152 ft | 431 kts | 331° |
| 2026-04-22 08:12 | 66.09700 | -149.09882 | 36186 ft | 436 kts | 331° |
| 2026-04-22 08:13 | 66.15320 | -149.16318 | 36186 ft | 448 kts | 331° |
| 2026-04-22 08:13 | 66.21027 | -149.22882 | 36186 ft | 457 kts | 331° |
| 2026-04-22 08:14 | 66.26880 | -149.29645 | 36178 ft | 461 kts | 332° |
| 2026-04-22 08:14 | 66.32719 | -149.36424 | 36140 ft | 461 kts | 332° |
| 2026-04-22 08:15 | 66.38578 | -149.43263 | 36101 ft | 459 kts | 332° |
| 2026-04-22 08:15 | 66.44376 | -149.50067 | 36073 ft | 460 kts | 331° |
| 2026-04-22 08:16 | 66.50197 | -149.56935 | 36036 ft | 460 kts | 332° |
| 2026-04-22 08:16 | 66.56112 | -149.63525 | 36020 ft | 462 kts | 334° |
| 2026-04-22 08:17 | 66.61935 | -149.70410 | 35953 ft | 461 kts | 330° |
| 2026-04-22 08:17 | 66.67761 | -149.77516 | 35917 ft | 460 kts | 330° |
| 2026-04-22 08:18 | 66.73576 | -149.84616 | 35940 ft | 459 kts | 330° |
| 2026-04-22 08:18 | 66.79381 | -149.91716 | 35965 ft | 460 kts | 330° |
| 2026-04-22 08:19 | 66.85193 | -149.98846 | 35990 ft | 462 kts | 331° |
| 2026-04-22 08:19 | 66.91038 | -150.06039 | 36002 ft | 463 kts | 331° |
| 2026-04-22 08:20 | 66.96890 | -150.13271 | 35981 ft | 463 kts | 331° |
| 2026-04-22 08:20 | 67.02743 | -150.20532 | 35972 ft | 463 kts | 331° |
| 2026-04-22 08:21 | 67.08596 | -150.27830 | 36016 ft | 463 kts | 331° |
| 2026-04-22 08:21 | 67.14454 | -150.35172 | 36045 ft | 463 kts | 331° |
| 2026-04-22 08:22 | 67.20304 | -150.42537 | 36031 ft | 465 kts | 331° |
| 2026-04-22 08:22 | 67.26172 | -150.49963 | 35953 ft | 466 kts | 331° |
| 2026-04-22 08:23 | 67.31985 | -150.57358 | 36017 ft | 463 kts | 331° |
| 2026-04-22 08:23 | 67.37630 | -150.64575 | 36076 ft | 464 kts | 331° |
| 2026-04-22 08:24 | 67.43469 | -150.72084 | 36103 ft | 465 kts | 330° |
| 2026-04-22 08:24 | 67.49301 | -150.79625 | 36106 ft | 465 kts | 330° |
| 2026-04-22 08:25 | 67.55118 | -150.87186 | 36087 ft | 466 kts | 330° |
| 2026-04-22 08:25 | 67.61004 | -150.94905 | 36068 ft | 467 kts | 330° |
| 2026-04-22 08:26 | 67.66862 | -151.02554 | 36083 ft | 470 kts | 331° |
| 2026-04-22 08:26 | 67.72731 | -151.10272 | 36036 ft | 470 kts | 330° |
| 2026-04-22 08:27 | 67.78583 | -151.17999 | 35913 ft | 471 kts | 332° |
| 2026-04-22 08:27 | 67.84500 | -151.25900 | 35930 ft | 468 kts | 330° |
| 2026-04-22 08:28 | 67.90244 | -151.33640 | 35930 ft | 455 kts | 330° |
| 2026-04-22 08:28 | 67.95950 | -151.41374 | 35928 ft | 459 kts | 330° |
| 2026-04-22 08:29 | 68.01705 | -151.49220 | 35954 ft | 467 kts | 330° |
| 2026-04-22 08:29 | 68.07593 | -151.57283 | 35981 ft | 474 kts | 330° |
| 2026-04-22 08:30 | 68.13478 | -151.65385 | 35981 ft | 477 kts | 330° |
| 2026-04-22 08:30 | 68.19458 | -151.73659 | 35955 ft | 477 kts | 330° |
| 2026-04-22 08:31 | 68.25391 | -151.81914 | 35971 ft | 475 kts | 330° |
| 2026-04-22 08:32 | 68.34226 | -151.94298 | 35999 ft | 475 kts | 330° |
| 2026-04-22 08:32 | 68.40091 | -152.02577 | 36089 ft | 474 kts | 330° |
| 2026-04-22 08:33 | 68.46020 | -152.10997 | 36153 ft | 475 kts | 330° |
| 2026-04-22 08:33 | 68.51927 | -152.19435 | 36220 ft | 476 kts | 330° |
| 2026-04-22 08:34 | 68.57846 | -152.27942 | 36205 ft | 477 kts | 330° |
| 2026-04-22 08:34 | 68.63753 | -152.36479 | 36190 ft | 477 kts | 330° |
| 2026-04-22 08:35 | 68.69659 | -152.45068 | 36181 ft | 477 kts | 330° |
| 2026-04-22 08:35 | 68.75600 | -152.53760 | 36190 ft | 477 kts | 330° |
| 2026-04-22 08:36 | 68.81538 | -152.62500 | 36232 ft | 476 kts | 330° |
| 2026-04-22 08:36 | 68.87425 | -152.71219 | 36267 ft | 477 kts | 329° |
| 2026-04-22 08:37 | 68.93312 | -152.79990 | 36307 ft | 477 kts | 329° |
| 2026-04-22 08:37 | 68.99218 | -152.88844 | 36350 ft | 481 kts | 329° |
| 2026-04-22 08:38 | 69.05170 | -152.97823 | 36367 ft | 484 kts | 329° |
| 2026-04-22 08:38 | 69.11153 | -153.06902 | 36374 ft | 485 kts | 329° |
| 2026-04-22 08:39 | 69.17137 | -153.16042 | 36374 ft | 485 kts | 329° |
| 2026-04-22 08:39 | 69.23109 | -153.25220 | 36372 ft | 485 kts | 329° |
| 2026-04-22 08:40 | 69.29066 | -153.34433 | 36370 ft | 485 kts | 330° |
| 2026-04-22 08:40 | 69.35036 | -153.43724 | 36377 ft | 485 kts | 330° |
| 2026-04-22 08:41 | 69.41000 | -153.53067 | 36388 ft | 485 kts | 330° |
| 2026-04-22 08:41 | 69.46981 | -153.62495 | 36401 ft | 486 kts | 330° |
| 2026-04-22 08:42 | 69.52944 | -153.71956 | 36408 ft | 486 kts | 329° |
| 2026-04-22 08:42 | 69.58920 | -153.81499 | 36417 ft | 486 kts | 329° |
| 2026-04-22 08:43 | 69.64835 | -153.91005 | 36429 ft | 485 kts | 329° |
| 2026-04-22 08:43 | 69.70768 | -154.00603 | 36436 ft | 486 kts | 329° |
| 2026-04-22 08:44 | 69.76703 | -154.10266 | 36441 ft | 486 kts | 329° |
| 2026-04-22 08:44 | 69.82669 | -154.20042 | 36435 ft | 487 kts | 329° |
| 2026-04-22 08:45 | 69.88555 | -154.29752 | 36438 ft | 486 kts | 329° |
| 2026-04-22 08:45 | 69.94460 | -154.39554 | 36435 ft | 483 kts | 329° |
| 2026-04-22 08:46 | 70.00337 | -154.49377 | 36441 ft | 481 kts | 329° |
| 2026-04-22 08:46 | 70.03259 | -154.54285 | 36161 ft | 487 kts | 329° |
| 2026-04-22 08:46 | 70.06249 | -154.59325 | 35613 ft | 489 kts | 329° |
| 2026-04-22 08:46 | 70.09203 | -154.64316 | 34961 ft | 487 kts | 329° |
| 2026-04-22 08:47 | 70.12111 | -154.69247 | 34315 ft | 484 kts | 328° |
| 2026-04-22 08:47 | 70.15062 | -154.74268 | 33662 ft | 484 kts | 329° |
| 2026-04-22 08:47 | 70.17973 | -154.79239 | 33041 ft | 479 kts | 329° |
| 2026-04-22 08:47 | 70.20855 | -154.84175 | 32410 ft | 477 kts | 329° |
| 2026-04-22 08:48 | 70.23717 | -154.89092 | 31739 ft | 473 kts | 329° |
| 2026-04-22 08:48 | 70.26558 | -154.93990 | 31122 ft | 467 kts | 329° |
| 2026-04-22 08:48 | 70.29389 | -154.98886 | 30520 ft | 463 kts | 329° |
| 2026-04-22 08:48 | 70.32188 | -155.03743 | 29824 ft | 459 kts | 329° |
| 2026-04-22 08:49 | 70.34923 | -155.08505 | 29273 ft | 452 kts | 330° |
| 2026-04-22 08:49 | 70.37646 | -155.13263 | 28668 ft | 447 kts | 330° |
| 2026-04-22 08:49 | 70.40212 | -155.17758 | 28077 ft | 443 kts | 330° |
| 2026-04-22 08:49 | 70.42867 | -155.22424 | 27490 ft | 437 kts | 331° |
| 2026-04-22 08:50 | 70.45504 | -155.27074 | 26899 ft | 432 kts | 331° |
| 2026-04-22 08:50 | 70.48077 | -155.31622 | 26342 ft | 426 kts | 332° |
| 2026-04-22 08:50 | 70.50655 | -155.36195 | 25788 ft | 424 kts | 332° |
| 2026-04-22 08:50 | 70.53062 | -155.40475 | 25206 ft | 421 kts | 332° |
| 2026-04-22 08:51 | 70.55555 | -155.44925 | 24648 ft | 414 kts | 332° |
| 2026-04-22 08:51 | 70.58079 | -155.49449 | 24114 ft | 411 kts | 332° |
| 2026-04-22 08:51 | 70.60535 | -155.53859 | 23568 ft | 410 kts | 332° |
| 2026-04-22 08:51 | 70.62991 | -155.58276 | 23034 ft | 407 kts | 332° |
| 2026-04-22 08:52 | 70.65430 | -155.62680 | 22479 ft | 403 kts | 332° |
| 2026-04-22 08:52 | 70.67878 | -155.67108 | 21958 ft | 400 kts | 331° |
| 2026-04-22 08:52 | 70.70287 | -155.71480 | 21401 ft | 396 kts | 331° |
| 2026-04-22 08:52 | 70.72596 | -155.75684 | 20890 ft | 386 kts | 331° |
| 2026-04-22 08:53 | 70.74912 | -155.79912 | 20379 ft | 376 kts | 331° |
| 2026-04-22 08:53 | 70.77128 | -155.83968 | 19878 ft | 367 kts | 332° |
| 2026-04-22 08:53 | 70.79305 | -155.87964 | 19401 ft | 359 kts | 332° |
| 2026-04-22 08:53 | 70.81468 | -155.91943 | 18942 ft | 350 kts | 332° |
| 2026-04-22 08:54 | 70.83125 | -155.95195 | 18532 ft | 346 kts | 325° |
| 2026-04-22 08:54 | 70.84808 | -156.00578 | 18003 ft | 349 kts | 309° |
| 2026-04-22 08:54 | 70.86247 | -156.06517 | 17367 ft | 346 kts | 309° |
| 2026-04-22 08:54 | 70.87682 | -156.12436 | 16778 ft | 343 kts | 309° |
| 2026-04-22 08:55 | 70.89114 | -156.18347 | 16194 ft | 339 kts | 309° |
| 2026-04-22 08:55 | 70.90533 | -156.24225 | 15596 ft | 336 kts | 309° |
| 2026-04-22 08:55 | 70.91924 | -156.30000 | 15034 ft | 332 kts | 309° |
| 2026-04-22 08:55 | 70.93299 | -156.35725 | 14435 ft | 329 kts | 309° |
| 2026-04-22 08:56 | 70.94653 | -156.41377 | 13825 ft | 326 kts | 309° |
| 2026-04-22 08:56 | 70.95994 | -156.46986 | 13238 ft | 320 kts | 309° |
| 2026-04-22 08:56 | 70.97308 | -156.52504 | 12509 ft | 311 kts | 309° |
| 2026-04-22 08:56 | 70.98578 | -156.57837 | 11852 ft | 303 kts | 309° |
| 2026-04-22 08:57 | 70.99569 | -156.62012 | 11257 ft | 298 kts | 309° |
| 2026-04-22 08:57 | 71.00759 | -156.67169 | 10882 ft | 282 kts | 308° |
| 2026-04-22 08:57 | 71.01922 | -156.72082 | 10197 ft | 280 kts | 308° |
| 2026-04-22 08:57 | 71.02993 | -156.76611 | 9536 ft | 278 kts | 308° |
| 2026-04-22 08:58 | 71.04121 | -156.81396 | 8845 ft | 275 kts | 309° |
| 2026-04-22 08:58 | 71.05251 | -156.86203 | 8149 ft | 272 kts | 308° |
| 2026-04-22 08:58 | 71.06300 | -156.90675 | 7625 ft | 263 kts | 309° |
| 2026-04-22 08:58 | 71.07393 | -156.95351 | 7291 ft | 256 kts | 309° |
| 2026-04-22 08:59 | 71.08301 | -156.99237 | 6988 ft | 257 kts | 309° |
| 2026-04-22 08:59 | 71.09351 | -157.03740 | 6628 ft | 255 kts | 309° |
| 2026-04-22 08:59 | 71.10333 | -157.07968 | 6316 ft | 254 kts | 309° |
| 2026-04-22 08:59 | 71.11281 | -157.12050 | 6010 ft | 252 kts | 308° |
| 2026-04-22 09:00 | 71.12341 | -157.16629 | 5659 ft | 238 kts | 308° |
| 2026-04-22 09:00 | 71.13246 | -157.20558 | 5358 ft | 227 kts | 309° |
| 2026-04-22 09:00 | 71.14156 | -157.24512 | 5071 ft | 216 kts | 309° |
| 2026-04-22 09:00 | 71.15019 | -157.28259 | 4771 ft | 211 kts | 309° |
| 2026-04-22 09:01 | 71.15858 | -157.31908 | 4500 ft | 206 kts | 309° |
| 2026-04-22 09:01 | 71.16878 | -157.34982 | 4195 ft | 196 kts | 337° |
| 2026-04-22 09:01 | 71.18119 | -157.35913 | 3940 ft | 186 kts | 1° |
| 2026-04-22 09:01 | 71.19295 | -157.35936 | 3703 ft | 187 kts | 2° |
| 2026-04-22 09:02 | 71.20621 | -157.35962 | 3447 ft | 187 kts | 2° |
| 2026-04-22 09:02 | 71.21950 | -157.36002 | 3194 ft | 188 kts | 1° |
| 2026-04-22 09:02 | 71.23223 | -157.36043 | 2981 ft | 171 kts | 1° |
| 2026-04-22 09:02 | 71.24328 | -157.36078 | 2776 ft | 148 kts | 1° |
| 2026-04-22 09:03 | 71.25349 | -157.36108 | 2521 ft | 142 kts | 1° |
| 2026-04-22 09:03 | 71.26285 | -157.36139 | 2396 ft | 122 kts | 1° |
| 2026-04-22 09:03 | 71.27147 | -157.36169 | 2175 ft | 125 kts | 1° |
| 2026-04-22 09:03 | 71.27974 | -157.35742 | 1974 ft | 115 kts | 26° |
| 2026-04-22 09:04 | 71.28565 | -157.34090 | 2038 ft | 117 kts | 56° |
| 2026-04-22 09:04 | 71.28786 | -157.31545 | 2028 ft | 124 kts | 86° |
| 2026-04-22 09:04 | 71.28663 | -157.28860 | 1996 ft | 124 kts | 100° |
| 2026-04-22 09:04 | 71.28481 | -157.26176 | 1983 ft | 124 kts | 96° |
| 2026-04-22 09:05 | 71.28391 | -157.23497 | 1977 ft | 123 kts | 90° |
| 2026-04-22 09:05 | 71.28384 | -157.20807 | 1969 ft | 122 kts | 85° |
| 2026-04-22 09:05 | 71.28410 | -157.18263 | 1968 ft | 123 kts | 85° |
| 2026-04-22 09:05 | 71.28436 | -157.15593 | 1969 ft | 122 kts | 85° |
| 2026-04-22 09:06 | 71.28451 | -157.13138 | 1980 ft | 127 kts | 86° |
| 2026-04-22 09:06 | 71.28457 | -157.10551 | 1989 ft | 124 kts | 86° |
| 2026-04-22 09:06 | 71.28458 | -157.08073 | 1979 ft | 123 kts | 87° |
| 2026-04-22 09:06 | 71.28460 | -157.05360 | 1903 ft | 125 kts | 86° |
| 2026-04-22 09:07 | 71.28463 | -157.02837 | 1715 ft | 123 kts | 87° |
| 2026-04-22 09:07 | 71.28467 | -157.00119 | 1540 ft | 122 kts | 86° |
| 2026-04-22 09:07 | 71.28471 | -156.97507 | 1357 ft | 121 kts | 86° |
| 2026-04-22 09:07 | 71.28474 | -156.94794 | 1181 ft | 121 kts | 86° |
| 2026-04-22 09:08 | 71.28477 | -156.92355 | 992 ft | 119 kts | 86° |
| 2026-04-22 09:08 | 71.28480 | -156.89735 | 814 ft | 119 kts | 86° |
| 2026-04-22 09:08 | 71.28482 | -156.87045 | 621 ft | 119 kts | 86° |
| 2026-04-22 09:08 | 71.28484 | -156.84535 | 447 ft | 119 kts | 86° |
| 2026-04-22 09:09 | 71.28484 | -156.82376 | 292 ft | 119 kts | 88° |
| 2026-04-22 09:09 | 71.28481 | -156.79762 | 122 ft | 127 kts | 86° |
| 2026-04-22 09:09 | 71.28487 | -156.77173 | 19 ft | 103 kts | 86° |
| 2026-04-22 09:09 | 71.28489 | -156.75534 | 21 ft | 43 kts | 89° |
| 2026-04-22 09:10 | 71.28489 | -156.74745 | 29 ft | 37 kts | 89° |
| 2026-04-22 09:10 | 71.28473 | -156.73967 | 33 ft | 19 kts | 101° |
| 2026-04-22 09:10 | 71.28487 | -156.74052 | 33 ft | 18 kts | 264° |
| 2026-04-22 09:10 | 71.28487 | -156.74510 | 32 ft | 23 kts | 270° |
| 2026-04-22 09:11 | 71.28488 | -156.75119 | 25 ft | 26 kts | 270° |
| 2026-04-22 09:11 | 71.28508 | -156.75592 | 19 ft | 18 kts | 318° |
| 2026-04-22 09:11 | 71.28642 | -156.75619 | 18 ft | 20 kts | 352° |
| 2026-04-22 09:11 | 71.28693 | -156.75882 | 17 ft | 0 kts | 264° |
| 2026-04-22 09:12 | 71.28690 | -156.75990 | 14 ft | 9 kts | 264° |
| 2026-04-22 09:12 | 71.28708 | -156.76131 | 14 ft | 3 kts | 329° |
| 2026-04-22 09:12 | 71.28738 | -156.76186 | 14 ft | 0 kts | 330° |
| 2026-04-22 09:13 | 71.28726 | -156.76311 | 14 ft | 20 kts | 233° |
| 2026-04-22 09:13 | 71.28699 | -156.76622 | 14 ft | 13 kts | 242° |
| 2026-04-22 09:13 | 71.28682 | -156.77110 | 14 ft | 26 kts | 270° |
| 2026-04-22 09:14 | 71.28680 | -156.77470 | 18 ft | 15 kts | 266° |
| 2026-04-22 09:14 | 71.28699 | -156.77672 | 17 ft | 17 kts | 345° |
| 2026-04-22 09:14 | 71.28717 | -156.77679 | 16 ft | 0 kts | 2° |